Time;durP1;ratioP1;P1;durP2;ratioP2;P2;SDS_P1;SDS_P2;PMS_P1;PMS_P2;Temp;Humidity;BMP_temperature;BMP_pressure;BME280_temperature;BME280_humidity;BME280_pressure;Samples;Min_cycle;Max_cycle;Signal;HPM_P1;HPM_P2
2021/05/04 00:01:17;;;;;;;6.13;3.72;;;;;;;16.14;96.86;101380.00;5057967;28;20492;-75
2021/05/04 00:04:03;;;;;;;3.88;2.85;;;;;;;15.90;97.77;101380.72;5056960;28;20131;-75
2021/05/04 00:06:51;;;;;;;3.95;3.08;;;;;;;15.60;98.62;101377.19;5055127;28;20467;-75
2021/05/04 00:09:37;;;;;;;3.80;3.00;;;;;;;15.88;98.71;101378.16;5059338;28;20036;-75
2021/05/04 00:12:23;;;;;;;5.57;3.42;;;;;;;15.72;99.59;101378.63;5059705;28;20373;-75
2021/05/04 00:15:09;;;;;;;3.15;2.53;;;;;;;15.78;98.92;101378.41;5044018;28;20025;-75
2021/05/04 00:17:55;;;;;;;5.82;4.78;;;;;;;16.10;96.95;101378.38;5059657;28;20028;-75
2021/05/04 00:20:41;;;;;;;3.53;2.92;;;;;;;15.70;97.35;101378.66;5059998;28;20480;-73
2021/05/04 00:23:26;;;;;;;4.43;2.80;;;;;;;15.82;98.98;101377.44;5044620;28;20043;-74
2021/05/04 00:26:12;;;;;;;5.30;3.25;;;;;;;15.74;99.71;101377.66;5060022;28;20047;-74
2021/05/04 00:28:58;;;;;;;3.90;2.80;;;;;;;15.82;97.66;101383.59;5060836;28;20061;-74
2021/05/04 00:31:44;;;;;;;3.80;3.00;;;;;;;15.86;98.94;101379.94;5058981;28;20025;-74
2021/05/04 00:34:31;;;;;;;3.97;2.88;;;;;;;15.60;98.71;101373.66;5057824;28;20025;-75
2021/05/04 00:37:17;;;;;;;3.20;2.70;;;;;;;16.14;96.25;101380.88;5058395;28;20029;-74
2021/05/04 00:40:04;;;;;;;4.57;2.67;;;;;;;15.66;98.82;101378.75;5044783;28;20160;-75
2021/05/04 00:42:50;;;;;;;3.35;2.60;;;;;;;15.84;98.22;101386.19;5058957;28;20029;-74
2021/05/04 00:45:36;;;;;;;4.18;2.88;;;;;;;16.09;96.38;101393.38;5043417;28;20115;-75
2021/05/04 00:48:22;;;;;;;6.03;3.08;;;;;;;15.78;99.05;101384.59;5059079;28;20120;-75
2021/05/04 00:51:08;;;;;;;4.70;2.95;;;;;;;16.03;100.00;101388.25;5057454;28;20064;-75
2021/05/04 00:53:54;;;;;;;4.38;2.83;;;;;;;16.16;98.96;101384.34;5058724;28;20128;-75
2021/05/04 00:56:40;;;;;;;5.40;3.15;;;;;;;15.43;100.00;101384.66;5058442;28;20028;-75
2021/05/04 00:59:28;;;;;;;3.75;2.80;;;;;;;15.88;100.00;101377.28;5058554;28;20035;-75
2021/05/04 01:02:14;;;;;;;3.30;2.80;;;;;;;16.26;98.49;101390.22;5058402;28;20039;-75
2021/05/04 01:05:01;;;;;;;5.05;3.10;;;;;;;16.13;97.91;101391.50;5043475;28;20134;-74
2021/05/04 01:07:46;;;;;;;4.90;2.90;;;;;;;16.17;97.54;101396.66;5058256;28;20029;-74
2021/05/04 01:10:32;;;;;;;4.50;2.75;;;;;;;15.88;98.76;101394.00;5057328;28;20098;-74
2021/05/04 01:13:18;;;;;;;3.63;3.20;;;;;;;15.88;97.44;101387.84;5057625;28;20103;-74
2021/05/04 01:16:04;;;;;;;4.45;3.30;;;;;;;16.13;96.25;101383.56;5058021;28;20025;-74
2021/05/04 01:18:50;;;;;;;4.50;2.80;;;;;;;15.54;99.65;101384.38;5043102;28;20028;-74
2021/05/04 01:21:36;;;;;;;3.85;2.60;;;;;;;15.83;98.55;101382.66;5057328;28;20358;-75
2021/05/04 02:10:23;;;;;;;6.82;3.80;;;;;;;15.40;100.00;101397.09;6068939;22;20028;-74
2021/05/04 02:13:09;;;;;;;6.80;3.63;;;;;;;15.34;100.00;101406.00;5056945;28;20106;-75
2021/05/04 02:15:54;;;;;;;4.30;3.63;;;;;;;15.01;100.00;101419.19;5056729;28;20032;-75
2021/05/04 02:18:40;;;;;;;4.10;3.20;;;;;;;15.26;100.00;101426.47;5055515;28;20048;-75
2021/05/04 02:21:26;;;;;;;7.13;3.55;;;;;;;15.15;100.00;101425.00;5054711;28;20028;-75
2021/05/04 02:24:12;;;;;;;5.65;3.25;;;;;;;15.45;100.00;101413.69;5041415;28;20150;-75
2021/05/04 02:26:58;;;;;;;4.75;3.28;;;;;;;15.24;100.00;101424.78;5040326;28;20107;-75
2021/05/04 02:29:43;;;;;;;4.80;3.05;;;;;;;15.49;100.00;101434.72;5056713;28;20035;-75
2021/05/04 02:32:35;;;;;;;6.18;3.25;;;;;;;15.20;100.00;101431.91;5053390;28;20455;-75
2021/05/04 02:35:20;;;;;;;3.80;3.05;;;;;;;15.15;100.00;101432.94;5040546;28;20020;-75
2021/05/04 02:38:06;;;;;;;4.45;3.50;;;;;;;14.68;100.00;101418.22;5041839;28;20048;-75
2021/05/04 02:40:52;;;;;;;5.63;3.90;;;;;;;14.63;100.00;101426.25;5055994;28;20438;-75
2021/05/04 02:43:38;;;;;;;4.95;3.60;;;;;;;15.16;100.00;101427.63;5055925;28;20450;-75
2021/05/04 02:46:24;;;;;;;5.22;3.80;;;;;;;14.95;100.00;101435.19;5056145;28;20350;-75
2021/05/04 02:49:10;;;;;;;4.25;3.40;;;;;;;14.95;100.00;101425.47;5056175;28;20472;-74
2021/05/04 02:51:55;;;;;;;4.82;3.42;;;;;;;14.68;100.00;101427.00;5055565;28;20376;-75
2021/05/04 02:54:41;;;;;;;4.07;3.65;;;;;;;14.84;100.00;101427.53;5055741;28;20374;-75
2021/05/04 02:57:27;;;;;;;5.18;3.80;;;;;;;14.71;100.00;101434.84;5055482;28;20036;-75
2021/05/04 03:00:14;;;;;;;5.40;4.00;;;;;;;14.82;100.00;101444.31;5040232;28;20021;-74
2021/05/04 03:02:59;;;;;;;7.63;4.25;;;;;;;15.01;100.00;101443.81;5055577;28;20033;-74
2021/05/04 03:05:45;;;;;;;5.50;3.75;;;;;;;15.16;100.00;101447.84;5041335;28;20017;-74
2021/05/04 03:08:32;;;;;;;9.02;3.85;;;;;;;14.65;100.00;101444.66;5039898;28;20405;-74
2021/05/04 03:11:17;;;;;;;5.78;3.85;;;;;;;14.58;100.00;101454.50;5053844;28;20045;-74
2021/05/04 03:14:03;;;;;;;5.13;3.80;;;;;;;13.94;100.00;101463.72;5055311;28;20361;-74
2021/05/04 03:16:49;;;;;;;7.75;3.95;;;;;;;14.27;100.00;101458.69;5055029;28;20033;-74
2021/05/04 03:19:35;;;;;;;7.25;3.97;;;;;;;14.15;100.00;101464.16;5056222;28;20021;-75
2021/05/04 03:22:21;;;;;;;4.90;3.97;;;;;;;14.29;100.00;101470.06;5040555;28;20021;-75
2021/05/04 03:25:07;;;;;;;5.60;4.35;;;;;;;14.01;100.00;101471.50;5055917;28;20044;-76
2021/05/04 03:27:57;;;;;;;7.65;4.22;;;;;;;13.86;100.00;101477.03;5040955;28;20025;-75
2021/05/04 03:30:43;;;;;;;5.93;4.15;;;;;;;14.16;100.00;101478.22;5055346;28;20056;-75
2021/05/04 03:33:29;;;;;;;4.97;4.25;;;;;;;14.16;100.00;101475.59;5040257;28;20123;-74
2021/05/04 03:36:15;;;;;;;4.72;3.95;;;;;;;14.37;100.00;101481.31;5055158;28;20060;-75
2021/05/04 03:39:00;;;;;;;5.65;3.88;;;;;;;14.52;100.00;101480.97;5055573;28;20032;-75
2021/05/04 03:41:46;;;;;;;6.05;4.18;;;;;;;14.68;100.00;101477.09;5039810;28;20036;-75
2021/05/04 03:44:32;;;;;;;6.78;3.97;;;;;;;14.76;100.00;101480.44;5039983;28;20032;-75
2021/05/04 03:47:18;;;;;;;6.65;4.35;;;;;;;14.93;100.00;101482.72;5040089;28;20021;-76
2021/05/04 03:50:05;;;;;;;6.55;4.25;;;;;;;14.36;100.00;101478.72;5040270;28;20043;-74
2021/05/04 03:52:51;;;;;;;5.90;4.28;;;;;;;14.73;100.00;101499.00;5040718;28;20029;-74
2021/05/04 03:55:37;;;;;;;5.25;4.38;;;;;;;14.65;100.00;101500.06;5054847;28;20480;-74
2021/05/04 03:58:23;;;;;;;6.20;4.20;;;;;;;14.54;100.00;101502.06;5055244;28;20032;-74
2021/05/04 04:01:08;;;;;;;7.07;3.80;;;;;;;14.66;100.00;101509.69;5055767;28;20020;-74
2021/05/04 04:03:54;;;;;;;5.05;4.00;;;;;;;15.02;100.00;101513.31;5054949;28;20086;-75
2021/05/04 04:06:40;;;;;;;6.75;3.70;;;;;;;15.10;100.00;101516.66;5055529;28;20039;-74
2021/05/04 04:09:26;;;;;;;5.32;3.83;;;;;;;15.16;100.00;101513.84;5054266;28;20033;-75
2021/05/04 04:12:12;;;;;;;6.03;3.83;;;;;;;15.11;100.00;101513.94;5054812;28;20100;-75
2021/05/04 04:14:58;;;;;;;6.05;3.72;;;;;;;15.04;100.00;101516.78;5053995;28;20048;-74
2021/05/04 04:17:43;;;;;;;4.35;3.50;;;;;;;15.30;100.00;101511.75;5055815;28;20040;-75
2021/05/04 04:20:29;;;;;;;7.47;4.07;;;;;;;14.83;100.00;101519.00;5054087;28;20104;-75
2021/05/04 04:23:15;;;;;;;4.40;3.50;;;;;;;15.18;100.00;101530.53;5054180;28;20029;-74
2021/05/04 04:26:01;;;;;;;5.80;3.50;;;;;;;15.37;100.00;101529.22;5054376;28;20543;-73
2021/05/04 04:28:47;;;;;;;7.97;4.25;;;;;;;15.13;100.00;101532.38;5040235;28;20043;-74
2021/05/04 04:31:33;;;;;;;5.90;4.00;;;;;;;15.33;100.00;101538.06;5055714;28;20126;-74
2021/05/04 04:34:20;;;;;;;4.20;3.63;;;;;;;14.79;100.00;101537.53;5055133;28;20025;-75
2021/05/04 04:37:06;;;;;;;4.25;3.72;;;;;;;15.25;100.00;101540.03;5040551;28;20028;-74
2021/05/04 04:39:51;;;;;;;7.50;3.70;;;;;;;15.22;100.00;101545.41;5054170;28;20036;-74
2021/05/04 04:42:37;;;;;;;4.68;3.70;;;;;;;14.53;100.00;101540.75;5053921;28;20029;-75
2021/05/04 04:45:23;;;;;;;4.30;3.40;;;;;;;15.33;100.00;101544.22;5052997;28;20037;-74
2021/05/04 04:48:09;;;;;;;4.22;3.40;;;;;;;15.50;100.00;101534.16;5055293;28;20040;-74
2021/05/04 04:50:55;;;;;;;5.28;3.90;;;;;;;15.82;100.00;101534.22;5054213;28;20033;-73
2021/05/04 04:53:40;;;;;;;4.07;3.30;;;;;;;15.96;100.00;101532.09;5053878;28;20113;-73
2021/05/04 04:56:26;;;;;;;4.20;3.80;;;;;;;15.83;100.00;101529.81;5043923;28;20020;-74
2021/05/04 04:59:12;;;;;;;6.07;3.45;;;;;;;15.43;100.00;101537.84;5058890;28;20029;-73
2021/05/04 05:01:58;;;;;;;6.53;4.68;;;;;;;15.20;100.00;101539.28;5058207;28;20086;-73
2021/05/04 05:04:45;;;;;;;4.43;3.72;;;;;;;15.65;100.00;101535.53;5043350;28;20029;-74
2021/05/04 05:07:30;;;;;;;4.97;3.63;;;;;;;16.08;100.00;101528.25;5058185;28;20025;-74
2021/05/04 05:10:16;;;;;;;5.93;4.10;;;;;;;15.67;100.00;101520.53;5042731;28;20036;-74
2021/05/04 05:13:02;;;;;;;5.75;3.83;;;;;;;15.59;100.00;101523.34;5044994;28;20057;-74
2021/05/04 05:15:48;;;;;;;5.10;3.65;;;;;;;15.68;100.00;101520.50;5057431;28;20095;-74
2021/05/04 05:18:34;;;;;;;5.78;3.83;;;;;;;15.77;100.00;101525.53;5057546;28;20041;-73
2021/05/04 05:21:20;;;;;;;5.50;4.40;;;;;;;15.78;100.00;101515.81;5042367;28;20028;-73
2021/05/04 05:24:08;;;;;;;5.20;4.15;;;;;;;15.90;100.00;101521.66;5056870;28;20103;-74
2021/05/04 05:26:54;;;;;;;5.13;3.63;;;;;;;16.06;100.00;101533.56;5056610;28;20029;-74
2021/05/04 05:29:40;;;;;;;8.45;4.05;;;;;;;16.17;100.00;101536.81;5057777;28;20028;-73
2021/05/04 05:32:25;;;;;;;7.30;3.92;;;;;;;16.11;100.00;101536.94;5042701;28;20033;-74
2021/05/04 05:35:11;;;;;;;4.63;3.60;;;;;;;16.01;100.00;101531.94;5057926;28;20087;-74
2021/05/04 05:37:57;;;;;;;7.82;3.60;;;;;;;15.96;100.00;101529.44;5044018;28;20036;-74
2021/05/04 05:40:43;;;;;;;4.93;3.92;;;;;;;16.36;100.00;101535.34;5042687;28;20032;-74
2021/05/04 05:43:30;;;;;;;6.45;4.15;;;;;;;16.26;100.00;101538.31;5057035;28;20039;-73
2021/05/04 05:46:16;;;;;;;5.43;4.03;;;;;;;16.46;100.00;101538.66;5057603;28;20095;-74
2021/05/04 05:49:02;;;;;;;7.82;4.38;;;;;;;16.59;100.00;101540.06;5048082;28;20420;-76
2021/05/04 05:51:47;;;;;;;5.38;3.70;;;;;;;16.26;100.00;101543.59;5059388;28;20027;-74
2021/05/04 05:54:33;;;;;;;5.88;4.18;;;;;;;16.16;100.00;101548.25;5060329;28;20021;-75
2021/05/04 05:57:19;;;;;;;6.93;3.67;;;;;;;16.30;100.00;101547.88;5058234;28;20111;-75
2021/05/04 06:00:06;;;;;;;5.90;3.67;;;;;;;16.09;100.00;101545.84;5057594;28;20017;-73
2021/05/04 06:02:52;;;;;;;3.95;3.20;;;;;;;16.19;100.00;101550.81;5057687;28;20039;-74
2021/05/04 06:05:38;;;;;;;4.85;3.90;;;;;;;16.30;100.00;101550.53;5056394;28;20035;-74
2021/05/04 06:08:24;;;;;;;6.15;3.83;;;;;;;16.33;100.00;101551.34;5042685;28;20021;-74
2021/05/04 06:11:10;;;;;;;5.93;4.13;;;;;;;16.47;100.00;101559.78;5035235;28;20076;-74
2021/05/04 06:13:56;;;;;;;8.70;3.90;;;;;;;16.42;98.94;101561.69;5036555;28;20036;-73
2021/05/04 06:16:42;;;;;;;5.55;4.20;;;;;;;16.36;100.00;101564.44;5035095;28;20039;-73
2021/05/04 06:19:27;;;;;;;7.45;4.03;;;;;;;15.77;100.00;101561.66;5036201;28;20025;-74
2021/05/04 06:22:13;;;;;;;4.88;4.32;;;;;;;16.47;100.00;101553.63;5020826;28;20032;-74
2021/05/04 06:24:59;;;;;;;5.50;4.03;;;;;;;16.25;100.00;101553.31;5036492;28;20021;-74
2021/05/04 06:27:45;;;;;;;5.15;3.92;;;;;;;16.85;98.75;101546.31;5035806;28;20374;-73
2021/05/04 06:30:35;;;;;;;8.18;3.95;;;;;;;16.94;98.93;101553.97;5036109;28;20029;-74
2021/05/04 06:33:21;;;;;;;4.68;3.78;;;;;;;16.91;98.54;101548.75;5035120;28;20446;-74
2021/05/04 06:36:06;;;;;;;5.78;4.07;;;;;;;16.87;97.05;101552.41;5035618;28;20454;-74
2021/05/04 06:38:54;;;;;;;4.85;3.90;;;;;;;16.91;97.06;101543.47;5036305;28;20055;-74
2021/05/04 06:41:40;;;;;;;4.90;3.60;;;;;;;16.41;100.00;101540.56;5034510;28;20053;-74
2021/05/04 06:44:26;;;;;;;6.13;3.70;;;;;;;16.97;96.28;101542.41;5035302;28;20049;-73
2021/05/04 06:47:12;;;;;;;7.32;4.32;;;;;;;16.92;97.00;101541.69;5037093;28;20111;-74
2021/05/04 06:49:58;;;;;;;5.32;3.70;;;;;;;17.06;95.11;101537.72;5020954;28;20045;-74
2021/05/04 06:52:44;;;;;;;5.70;3.60;;;;;;;16.88;94.21;101534.75;5035041;28;20032;-75
2021/05/04 06:55:30;;;;;;;5.10;3.92;;;;;;;17.18;95.02;101533.81;5035679;28;20078;-74
2021/05/04 06:58:16;;;;;;;6.05;3.95;;;;;;;17.40;95.71;101534.88;5020161;28;20410;-75
2021/05/04 07:01:02;;;;;;;7.05;3.80;;;;;;;16.93;99.59;101535.47;5035787;28;20124;-73
2021/05/04 07:03:48;;;;;;;6.75;3.47;;;;;;;17.38;97.65;101534.03;5020245;28;20369;-75
2021/05/04 07:06:34;;;;;;;5.82;3.70;;;;;;;17.30;96.97;101530.75;5035199;28;20030;-74
2021/05/04 07:09:19;;;;;;;5.78;4.13;;;;;;;17.33;96.70;101528.03;5035439;28;20100;-75
2021/05/04 07:12:06;;;;;;;4.78;3.97;;;;;;;17.19;95.90;101524.94;5050482;28;20071;-74
2021/05/04 07:14:52;;;;;;;4.68;3.63;;;;;;;17.40;95.16;101516.31;5055489;28;20088;-74
2021/05/04 07:17:38;;;;;;;6.82;3.63;;;;;;;17.73;92.68;101517.88;5054949;28;20108;-75
2021/05/04 07:20:24;;;;;;;5.88;3.72;;;;;;;18.34;86.53;101515.69;5040923;28;20032;-75
2021/05/04 07:23:11;;;;;;;4.80;3.55;;;;;;;18.24;84.71;101524.88;5054795;28;20460;-74
2021/05/04 07:25:57;;;;;;;4.38;3.45;;;;;;;18.40;82.41;101514.56;5055179;28;20111;-74
2021/05/04 07:28:44;;;;;;;12.18;3.80;;;;;;;18.62;81.66;101518.19;5056163;28;20021;-74
2021/05/04 07:31:30;;;;;;;5.68;3.55;;;;;;;18.66;79.80;101507.38;5041018;28;20071;-73
2021/05/04 07:34:16;;;;;;;5.53;3.72;;;;;;;17.99;85.65;101504.56;5054780;28;20334;-75
2021/05/04 07:37:03;;;;;;;5.18;3.58;;;;;;;19.07;81.43;101506.66;5056444;28;20032;-73
2021/05/04 07:39:48;;;;;;;4.63;3.20;;;;;;;18.98;81.15;101512.31;5054648;28;20062;-74
2021/05/04 07:42:34;;;;;;;4.63;3.53;;;;;;;19.32;78.83;101509.22;5055708;28;20021;-74
2021/05/04 07:45:20;;;;;;;5.85;3.45;;;;;;;19.90;75.35;101508.50;5040677;28;20445;-75
2021/05/04 07:48:09;;;;;;;5.63;3.65;;;;;;;19.18;78.33;101508.88;5054384;28;20033;-76
2021/05/04 07:50:55;;;;;;;3.72;3.28;;;;;;;19.37;75.80;101509.03;5054972;28;20029;-75
2021/05/04 07:53:41;;;;;;;4.97;3.47;;;;;;;19.82;74.80;101505.31;5055190;28;20468;-75
2021/05/04 07:56:27;;;;;;;4.43;3.30;;;;;;;19.85;70.88;101509.63;5053703;28;20444;-75
2021/05/04 07:59:13;;;;;;;5.68;3.30;;;;;;;20.18;70.04;101492.22;5040303;28;20043;-75
2021/05/04 08:01:59;;;;;;;3.28;2.97;;;;;;;20.41;67.89;101490.25;5054877;28;20029;-75
2021/05/04 08:04:45;;;;;;;4.53;3.33;;;;;;;20.64;69.24;101495.38;5039585;28;20358;-74
2021/05/04 08:07:31;;;;;;;3.10;2.80;;;;;;;20.69;67.89;101495.19;5055065;28;20029;-75
2021/05/04 08:10:16;;;;;;;5.85;3.45;;;;;;;20.97;68.65;101490.31;5039304;28;20335;-75
2021/05/04 08:13:03;;;;;;;5.50;3.10;;;;;;;21.38;65.89;101489.16;5040314;28;20025;-74
2021/05/04 08:15:51;;;;;;;4.97;2.70;;;;;;;20.43;68.20;101490.19;5039377;28;20090;-75
2021/05/04 08:18:37;;;;;;;10.30;8.18;;;;;;;20.64;68.98;101478.53;5055330;28;20072;-75
2021/05/04 08:21:24;;;;;;;6.10;3.47;;;;;;;21.73;65.01;101477.59;5054855;28;20501;-74
2021/05/04 08:24:13;;;;;;;6.18;3.40;;;;;;;21.53;64.28;101472.38;5040894;28;20115;-75
2021/05/04 08:26:59;;;;;;;6.32;3.55;;;;;;;21.67;63.32;101469.88;5054006;28;20021;-75
2021/05/04 08:29:48;;;;;;;6.22;2.90;;;;;;;21.73;63.26;101466.91;5042890;28;20104;-75
2021/05/04 08:32:34;;;;;;;4.47;2.90;;;;;;;22.08;61.24;101474.84;5058186;28;20120;-76
2021/05/04 08:35:19;;;;;;;4.57;2.85;;;;;;;22.54;60.87;101468.75;5044586;28;20414;-74
2021/05/04 08:38:05;;;;;;;4.05;2.65;;;;;;;21.41;60.64;101470.31;5043668;28;20106;-74
2021/05/04 08:40:51;;;;;;;3.30;2.55;;;;;;;22.35;59.62;101464.47;5058803;28;20450;-74
2021/05/04 08:43:38;;;;;;;3.63;2.47;;;;;;;21.93;60.04;101461.41;5057460;28;20096;-75
2021/05/04 08:46:24;;;;;;;3.40;2.47;;;;;;;21.89;60.40;101467.84;5043687;28;20028;-74
2021/05/04 08:49:14;;;;;;;6.05;2.90;;;;;;;22.59;59.02;101465.84;5058155;28;20037;-74
2021/05/04 08:52:00;;;;;;;3.83;2.78;;;;;;;22.26;59.80;101465.81;5057722;28;20091;-74
2021/05/04 08:54:46;;;;;;;4.47;2.50;;;;;;;21.51;61.23;101458.25;5057442;28;20032;-75
2021/05/04 08:57:36;;;;;;;3.92;2.45;;;;;;;22.32;59.14;101460.19;5058497;28;20388;-73
2021/05/04 09:00:21;;;;;;;2.97;2.17;;;;;;;22.29;56.10;101465.69;5058665;28;20021;-75
2021/05/04 09:03:13;;;;;;;2.70;2.03;;;;;;;22.52;54.75;101461.78;5058473;28;20032;-74
2021/05/04 09:08:59;;;;;;;3.85;2.65;;;;;;;23.39;50.46;101467.50;5057900;28;20028;-75
2021/05/04 09:14:56;;;;;;;7.03;2.40;;;;;;;23.80;48.74;101460.53;5057920;28;20120;-75
2021/05/04 09:17:48;;;;;;;4.90;2.03;;;;;;;23.75;49.54;101456.41;5057283;28;20106;-74
2021/05/04 09:20:50;;;;;;;5.28;2.45;;;;;;;23.08;48.37;101457.63;5057336;28;20018;-75
2021/05/04 09:23:57;;;;;;;7.90;2.20;;;;;;;23.16;49.23;101463.41;5057869;28;20032;-75
2021/05/04 09:26:42;;;;;;;3.72;2.50;;;;;;;22.92;48.89;101451.47;5032691;28;20365;-77
2021/05/04 09:29:41;;;;;;;6.22;2.60;;;;;;;23.67;48.44;101446.19;5060537;28;20433;-76
2021/05/04 09:32:29;;;;;;;9.75;8.13;;;;;;;22.51;51.67;101439.53;5047060;28;20091;-74
2021/05/04 09:35:15;;;;;;;3.30;2.50;;;;;;;22.84;50.74;101437.69;5057223;28;20057;-74
2021/05/04 09:38:15;;;;;;;4.80;2.50;;;;;;;22.95;52.29;101432.56;5041651;28;20036;-74
2021/05/04 09:41:01;;;;;;;5.13;2.00;;;;;;;23.00;49.63;101437.66;5041992;28;20099;-75
2021/05/04 09:43:46;;;;;;;4.55;2.50;;;;;;;22.33;50.55;101429.84;5041322;28;20025;-75
2021/05/04 09:46:49;;;;;;;3.33;1.95;;;;;;;22.42;49.07;101420.50;5056999;28;20422;-73
2021/05/04 09:49:37;;;;;;;5.15;2.13;;;;;;;22.51;50.10;101426.19;5057411;28;20442;-74
2021/05/04 09:55:12;;;;;;;2.03;1.83;;;;;;;22.65;46.95;101426.31;5056053;28;20450;-75
2021/05/04 09:58:19;;;;;;;3.08;1.90;;;;;;;22.58;45.45;101422.25;5041931;28;20036;-74
2021/05/04 10:01:20;;;;;;;3.33;1.85;;;;;;;21.74;49.34;101410.81;5055203;28;20112;-74
2021/05/04 10:04:06;;;;;;;7.80;3.90;;;;;;;22.72;49.26;101421.47;5056065;28;20041;-74
2021/05/04 10:06:53;;;;;;;2.20;1.90;;;;;;;22.82;47.47;101415.50;5042397;28;20048;-75
2021/05/04 10:09:42;;;;;;;4.35;2.08;;;;;;;23.07;46.85;101418.50;5040824;28;20021;-75
2021/05/04 10:12:29;;;;;;;3.35;1.90;;;;;;;22.92;45.85;101408.72;5040929;28;20448;-74
2021/05/04 10:15:18;;;;;;;5.60;2.90;;;;;;;23.34;45.76;101398.22;5056476;28;20099;-74
2021/05/04 10:18:04;;;;;;;2.72;1.70;;;;;;;22.69;46.82;101393.13;5056898;28;20035;-74
2021/05/04 10:20:53;;;;;;;3.75;2.20;;;;;;;22.75;46.71;101400.78;5040598;28;20021;-74
2021/05/04 10:23:41;;;;;;;2.88;2.10;;;;;;;23.08;46.26;101389.97;5056340;28;20029;-74
2021/05/04 10:26:30;;;;;;;4.80;1.70;;;;;;;22.54;46.75;101379.75;5041421;28;20029;-74
2021/05/04 10:29:16;;;;;;;2.33;1.75;;;;;;;22.73;46.78;101386.66;5056744;28;20031;-75
2021/05/04 10:32:02;;;;;;;4.80;1.65;;;;;;;22.31;46.62;101388.16;5041284;28;20059;-74
2021/05/04 10:34:48;;;;;;;2.50;1.80;;;;;;;22.24;47.37;101386.75;5054871;28;20108;-74
2021/05/04 10:37:35;;;;;;;3.70;1.67;;;;;;;22.61;46.65;101378.47;5055309;28;20039;-74
2021/05/04 10:40:22;;;;;;;2.65;1.80;;;;;;;23.42;46.30;101371.00;5040713;28;20017;-74
2021/05/04 10:43:23;;;;;;;5.72;2.13;;;;;;;23.19;46.13;101375.00;5056276;28;20056;-75
2021/05/04 10:46:30;;;;;;;2.10;1.50;;;;;;;23.30;46.13;101366.38;5041827;28;20036;-75
2021/05/04 10:49:39;;;;;;;3.20;1.90;;;;;;;23.65;45.97;101356.22;5056706;28;20330;-75
2021/05/04 10:52:51;;;;;;;3.55;1.80;;;;;;;24.01;43.75;101362.88;5041015;28;20029;-75
2021/05/04 10:55:54;;;;;;;2.53;1.80;;;;;;;23.62;44.55;101356.44;5055803;28;20021;-74
2021/05/04 10:58:45;;;;;;;1.98;1.75;;;;;;;22.73;44.61;101357.25;5053925;28;20037;-74
2021/05/04 11:01:31;;;;;;;3.28;1.88;;;;;;;22.67;45.32;101348.75;5055986;28;20032;-76
2021/05/04 11:04:38;;;;;;;2.25;1.90;;;;;;;23.21;46.06;101335.72;5039945;28;20020;-73
2021/05/04 11:07:57;;;;;;;3.42;1.90;;;;;;;23.19;46.05;101348.25;5055234;28;20099;-75
2021/05/04 11:11:19;;;;;;;2.55;1.77;;;;;;;23.62;44.61;101343.91;5055198;28;20049;-76
2021/05/04 11:14:40;;;;;;;2.13;1.77;;;;;;;23.35;44.55;101346.44;5055565;28;20029;-75
2021/05/04 11:17:41;;;;;;;2.50;1.75;;;;;;;23.38;42.07;101332.88;4994653;28;20586;-75
2021/05/04 11:20:38;;;;;;;4.28;1.50;;;;;;;23.42;42.70;101334.41;5056214;28;20102;-73
2021/05/04 11:23:26;;;;;;;2.03;1.70;;;;;;;24.33;41.24;101332.25;5058617;28;20025;-74
2021/05/04 11:26:50;;;;;;;2.28;1.75;;;;;;;23.85;41.53;101331.75;5056134;28;20029;-74
2021/05/04 11:29:37;;;;;;;2.95;1.70;;;;;;;23.84;41.02;101319.34;5055980;28;20103;-74
2021/05/04 11:32:40;;;;;;;4.53;1.67;;;;;;;23.72;41.16;101320.97;5054622;28;20088;-74
2021/05/04 11:35:36;;;;;;;2.22;1.63;;;;;;;23.65;41.01;101322.31;5054775;28;20029;-76
2021/05/04 11:38:24;;;;;;;4.38;1.90;;;;;;;24.13;40.50;101318.38;5054551;28;20111;-74
2021/05/04 11:41:10;;;;;;;4.60;1.73;;;;;;;24.28;39.48;101317.41;5055392;28;20448;-75
2021/05/04 11:43:56;;;;;;;2.20;1.70;;;;;;;24.83;37.88;101320.91;5055552;28;20025;-75
2021/05/04 11:46:42;;;;;;;3.80;2.05;;;;;;;24.47;39.02;101317.94;5055363;28;20437;-75
2021/05/04 11:49:29;;;;;;;4.13;1.92;;;;;;;24.65;38.75;101316.75;5040228;28;20029;-74
2021/05/04 11:52:18;;;;;;;2.33;1.60;;;;;;;25.11;38.27;101312.75;5055059;28;20032;-74
2021/05/04 11:55:22;;;;;;;1.55;1.40;;;;;;;25.29;38.32;101300.75;5055394;28;20029;-76
2021/05/04 11:58:21;;;;;;;3.08;1.60;;;;;;;25.34;36.84;101304.84;5055217;28;20063;-74
2021/05/04 12:01:09;;;;;;;2.17;1.67;;;;;;;24.89;37.84;101296.38;5039743;28;20034;-76
2021/05/04 12:03:56;;;;;;;1.95;1.70;;;;;;;25.70;37.04;101285.31;5042319;28;20029;-74
2021/05/04 12:06:48;;;;;;;13.52;2.13;;;;;;;25.19;37.19;101286.25;5044555;28;20079;-74
2021/05/04 12:09:37;;;;;;;2.58;1.58;;;;;;;25.13;37.15;101283.97;5058498;28;20025;-73
2021/05/04 12:12:23;;;;;;;3.58;1.58;;;;;;;24.86;35.74;101272.44;5028093;28;20081;-74
2021/05/04 12:15:10;;;;;;;1.65;1.40;;;;;;;25.16;35.04;101278.41;5024656;28;20490;-74
2021/05/04 12:17:56;;;;;;;3.25;1.80;;;;;;;25.34;34.53;101278.03;5043184;28;20118;-75
2021/05/04 12:20:47;;;;;;;4.03;1.65;;;;;;;25.02;34.90;101265.94;5024015;28;20033;-73
2021/05/04 12:23:37;;;;;;;2.65;1.67;;;;;;;24.79;35.69;101263.13;5039175;28;20029;-73
2021/05/04 12:26:23;;;;;;;1.40;1.30;;;;;;;25.04;34.84;101263.16;5024123;28;20442;-75
2021/05/04 12:29:09;;;;;;;2.22;1.60;;;;;;;24.87;34.21;101258.94;5039374;28;20446;-75
2021/05/04 12:31:55;;;;;;;1.83;1.58;;;;;;;25.20;35.21;101255.78;5024063;28;20359;-75
2021/05/04 12:34:40;;;;;;;1.73;1.50;;;;;;;25.25;35.48;101257.19;5039091;28;20048;-74
2021/05/04 12:37:29;;;;;;;2.03;1.60;;;;;;;25.59;35.11;101255.72;5039361;28;20047;-75
2021/05/04 12:40:18;;;;;;;2.25;1.60;;;;;;;25.66;34.92;101243.53;5024759;28;20124;-75
2021/05/04 12:43:10;;;;;;;2.25;1.90;;;;;;;25.87;34.93;101242.00;5039223;28;20025;-75
2021/05/04 12:46:05;;;;;;;2.97;1.60;;;;;;;25.19;36.38;101238.81;5036555;28;20357;-75
2021/05/04 12:48:52;;;;;;;3.25;1.63;;;;;;;25.63;35.57;101250.00;5023010;28;20037;-76
2021/05/04 12:51:44;;;;;;;4.43;1.50;;;;;;;24.79;36.45;101226.41;5038138;28;20043;-76
2021/05/04 12:54:35;;;;;;;1.95;1.25;;;;;;;24.34;37.25;101234.84;5023409;28;20033;-76
2021/05/04 12:57:24;;;;;;;3.80;1.40;;;;;;;24.47;37.10;101226.84;5038063;28;20406;-75
2021/05/04 13:00:16;;;;;;;2.88;1.63;;;;;;;24.93;36.40;101217.44;5036738;28;20053;-74
2021/05/04 13:03:18;;;;;;;2.38;1.80;;;;;;;24.86;35.36;101214.31;5037885;28;20033;-75
2021/05/04 13:06:29;;;;;;;2.20;1.80;;;;;;;25.07;36.16;101206.63;5022611;28;20045;-75
2021/05/04 13:30:36;;;;;;;3.58;1.58;;;;;;;25.13;35.00;101193.66;5058107;28;20397;-75
2021/05/04 13:33:21;;;;;;;6.55;1.50;;;;;;;24.74;35.36;101187.50;5057677;28;20033;-75
2021/05/04 13:36:09;;;;;;;8.20;1.77;;;;;;;24.96;34.64;101179.69;5057699;28;20036;-75
2021/05/04 13:48:13;;;;;;;1.90;1.50;;;;;;;25.05;34.84;101166.50;5057795;28;20028;-76
2021/05/04 13:51:00;;;;;;;2.58;1.40;;;;;;;24.41;35.46;101168.31;5056892;28;20017;-75
2021/05/04 13:53:46;;;;;;;3.25;1.60;;;;;;;24.91;35.58;101171.13;5057518;28;20108;-74
2021/05/04 13:56:31;;;;;;;1.90;1.40;;;;;;;24.83;34.75;101170.81;5042866;28;20075;-74
2021/05/04 13:59:17;;;;;;;4.00;1.58;;;;;;;23.78;34.82;101161.84;5057839;28;20035;-75
2021/05/04 14:02:10;;;;;;;2.03;1.60;;;;;;;24.28;35.07;101152.22;5042764;28;20021;-74
2021/05/04 14:28:49;;;;;;;1.90;1.50;;;;;;;24.24;34.01;101115.91;5056346;28;20021;-75
2021/05/04 14:31:34;;;;;;;2.50;1.90;;;;;;;24.34;33.51;101113.47;5056013;28;20044;-75
2021/05/04 14:34:21;;;;;;;2.40;2.10;;;;;;;24.20;33.92;101108.16;5056652;28;20036;-74
2021/05/04 14:37:14;;;;;;;1.98;1.70;;;;;;;24.30;33.98;101104.75;5056133;28;20036;-75
2021/05/04 14:55:50;;;;;;;2.30;1.83;;;;;;;23.28;33.03;101085.69;5056062;28;20059;-76
2021/05/04 15:04:22;;;;;;;4.72;2.10;;;;;;;23.64;33.11;101071.75;5055560;28;20025;-74
2021/05/04 15:07:08;;;;;;;2.97;1.92;;;;;;;24.11;32.63;101071.31;5056631;28;20079;-74
2021/05/04 15:09:54;;;;;;;2.38;1.70;;;;;;;24.43;32.51;101078.84;5054233;28;20033;-75